Time;durP1;ratioP1;P1;durP2;ratioP2;P2;SDS_P1;SDS_P2;PMS_P1;PMS_P2;Temp;Humidity;BMP_temperature;BMP_pressure;BME280_temperature;BME280_humidity;BME280_pressure;Samples;Min_cycle;Max_cycle;Signal;HPM_P1;HPM_P2
2022/05/19 00:05:38;;;;;;;6.78;3.15;;;;;;;19.64;73.08;100693.78;21070466;28;20052;-76
2022/05/19 00:15:39;;;;;;;5.72;2.78;;;;;;;19.66;72.29;100686.59;21070415;28;20385;-75
2022/05/19 00:25:41;;;;;;;7.05;3.10;;;;;;;19.57;73.46;100681.69;21069698;28;20043;-75
2022/05/19 00:35:43;;;;;;;5.80;2.70;;;;;;;19.48;73.70;100682.13;21068833;28;20476;-75
2022/05/19 00:45:51;;;;;;;7.72;3.33;;;;;;;19.50;72.79;100674.97;21068888;28;20048;-76
2022/05/19 00:55:55;;;;;;;6.95;3.30;;;;;;;19.35;73.03;100679.19;21068516;28;20044;-76
2022/05/19 01:06:07;;;;;;;6.07;3.00;;;;;;;19.22;73.73;100670.13;21067363;28;20048;-76
2022/05/19 01:16:10;;;;;;;6.95;3.00;;;;;;;18.82;76.49;100676.38;21070636;28;20109;-76
2022/05/19 01:26:42;;;;;;;6.32;3.10;;;;;;;18.57;77.37;100666.84;21068339;28;20052;-74
2022/05/19 01:36:44;;;;;;;5.00;3.00;;;;;;;18.51;77.40;100676.88;21066210;28;20047;-76
2022/05/19 01:46:54;;;;;;;8.02;3.60;;;;;;;18.42;77.70;100664.88;21066097;28;20056;-75
2022/05/19 01:57:02;;;;;;;7.13;3.40;;;;;;;18.31;77.84;100662.72;21068220;28;20056;-73
2022/05/19 02:07:07;;;;;;;7.13;3.88;;;;;;;18.14;78.82;100666.06;21080432;28;20125;-74
2022/05/19 02:17:12;;;;;;;6.22;3.40;;;;;;;17.91;80.01;100666.19;21080307;28;20054;-73
2022/05/19 02:27:31;;;;;;;7.78;3.15;;;;;;;17.81;80.64;100659.53;21078964;28;20056;-73
2022/05/19 02:37:33;;;;;;;5.70;3.25;;;;;;;17.67;80.86;100666.22;21078239;28;20048;-74
2022/05/19 02:47:34;;;;;;;6.40;3.80;;;;;;;17.48;81.76;100665.25;21077210;28;20121;-74
2022/05/19 02:57:36;;;;;;;7.38;4.05;;;;;;;17.16;84.02;100672.69;21076788;28;20135;-73
2022/05/19 03:07:38;;;;;;;7.63;3.95;;;;;;;17.00;85.44;100678.59;21076931;28;20047;-73
2022/05/19 03:17:39;;;;;;;7.35;3.90;;;;;;;16.61;87.96;100680.00;21075926;28;20044;-73
2022/05/19 03:27:41;;;;;;;7.10;3.95;;;;;;;16.22;90.00;100668.19;21073802;28;20109;-72
2022/05/19 03:37:43;;;;;;;7.60;4.47;;;;;;;15.98;91.41;100678.69;21072456;28;20044;-72
2022/05/19 03:47:45;;;;;;;8.38;4.65;;;;;;;16.01;91.66;100683.00;21071956;28;20052;-72
2022/05/19 03:57:47;;;;;;;8.65;4.10;;;;;;;15.93;90.89;100670.06;21071519;28;20116;-73
2022/05/19 04:07:48;;;;;;;7.20;4.63;;;;;;;15.85;91.86;100685.28;21070256;28;20649;-73
2022/05/19 04:17:50;;;;;;;6.15;4.10;;;;;;;15.99;92.04;100690.97;21070135;28;20044;-73
2022/05/19 04:27:51;;;;;;;8.95;4.72;;;;;;;15.87;92.48;100697.53;21067852;28;20412;-73
2022/05/19 04:37:57;;;;;;;8.68;4.50;;;;;;;15.91;91.81;100714.16;21066466;28;20133;-73
2022/05/19 04:48:01;;;;;;;6.80;4.47;;;;;;;16.15;89.79;100718.63;21067560;28;20055;-72
2022/05/19 04:58:04;;;;;;;8.07;3.72;;;;;;;16.43;88.86;100717.66;21067471;28;20048;-73
2022/05/19 05:08:05;;;;;;;8.75;4.28;;;;;;;16.91;85.36;100719.47;21066260;28;20048;-73
2022/05/19 05:18:08;;;;;;;7.95;3.85;;;;;;;17.27;83.84;100721.69;21067737;28;20127;-72
2022/05/19 05:28:09;;;;;;;80.55;10.27;;;;;;;17.52;82.72;100722.47;21066832;28;20055;-72
2022/05/19 05:38:11;;;;;;;22.35;6.38;;;;;;;17.84;80.72;100731.81;21077401;28;20051;-74
2022/05/19 05:48:13;;;;;;;7.15;4.03;;;;;;;17.79;80.76;100743.50;21081043;28;20060;-74
2022/05/19 05:58:14;;;;;;;8.48;4.05;;;;;;;18.04;79.25;100741.59;21080424;28;20093;-72
2022/05/19 06:08:16;;;;;;;24.05;5.30;;;;;;;18.49;75.41;100758.28;21079671;28;20237;-72
2022/05/19 06:18:18;;;;;;;16.10;3.65;;;;;;;18.88;73.06;100751.28;21079615;28;20180;-72
2022/05/19 06:28:20;;;;;;;10.32;3.70;;;;;;;19.14;71.51;100750.09;21079558;28;20062;-72
2022/05/19 06:38:22;;;;;;;4.82;2.83;;;;;;;19.53;71.97;100753.63;21078043;28;20040;-72
2022/05/19 06:48:23;;;;;;;7.53;3.05;;;;;;;19.67;70.66;100757.38;21149017;22;20055;-69
2022/05/19 06:58:25;;;;;;;8.75;3.90;;;;;;;20.27;68.04;100766.91;21160067;28;20044;-68
2022/05/19 07:08:26;;;;;;;9.52;3.00;;;;;;;20.79;67.91;100770.41;21141948;28;20389;-67
2022/05/19 07:18:28;;;;;;;5.85;3.13;;;;;;;21.06;67.63;100776.09;21136254;28;20549;-67
2022/05/19 07:28:30;;;;;;;6.18;2.78;;;;;;;21.57;67.45;100776.91;21129943;28;20054;-69
2022/05/19 07:38:31;;;;;;;8.07;3.25;;;;;;;21.70;66.28;100764.63;21135899;28;20048;-69
2022/05/19 07:48:33;;;;;;;6.55;2.97;;;;;;;21.90;67.54;100762.66;21148058;28;20047;-69
2022/05/19 07:58:35;;;;;;;6.78;3.00;;;;;;;22.43;65.37;100766.72;21094369;28;20048;-69
2022/05/19 08:08:37;;;;;;;5.88;3.13;;;;;;;22.83;66.21;100756.28;21061603;28;20070;-70
2022/05/19 08:18:39;;;;;;;8.35;3.40;;;;;;;23.40;62.10;100745.63;21061502;28;20139;-68
2022/05/19 08:28:42;;;;;;;9.18;3.42;;;;;;;23.91;60.90;100762.84;21060386;28;20048;-68
2022/05/19 08:38:44;;;;;;;5.68;2.70;;;;;;;24.67;54.10;100751.47;21060404;28;20052;-68
2022/05/19 08:48:48;;;;;;;4.88;2.95;;;;;;;25.26;51.17;100746.47;21059703;28;20113;-68
2022/05/19 08:59:07;;;;;;;6.45;3.00;;;;;;;25.43;51.02;100728.28;21060030;28;20117;-69
2022/05/19 09:09:19;;;;;;;5.07;2.90;;;;;;;25.96;50.92;100726.19;21065288;28;20468;-69
2022/05/19 09:19:42;;;;;;;11.68;3.38;;;;;;;25.84;49.32;100712.72;21149089;28;20100;-68
2022/05/19 09:29:48;;;;;;;6.77;3.40;;;;;;;26.33;49.77;100703.66;21159577;28;20056;-67
2022/05/19 09:40:06;;;;;;;7.75;3.60;;;;;;;26.58;47.97;100696.41;21158282;28;20522;-66
2022/05/19 09:50:31;;;;;;;5.35;3.20;;;;;;;27.19;48.65;100690.72;21157371;28;20085;-67
2022/05/19 10:00:43;;;;;;;6.50;3.53;;;;;;;27.41;48.21;100687.16;21155985;28;20040;-66
2022/05/19 10:11:00;;;;;;;6.50;3.65;;;;;;;27.39;50.04;100681.03;21139132;28;20151;-67
2022/05/19 10:21:51;;;;;;;5.90;3.50;;;;;;;27.96;48.87;100675.38;21153118;28;20051;-67
2022/05/19 10:32:14;;;;;;;6.35;3.60;;;;;;;27.71;46.50;100663.13;21128561;28;20047;-67
2022/05/19 10:42:25;;;;;;;6.70;3.00;;;;;;;28.38;43.67;100656.56;21151057;28;20467;-67
2022/05/19 10:52:43;;;;;;;6.55;3.28;;;;;;;28.44;43.21;100647.09;21151180;28;20450;-67
2022/05/19 11:03:09;;;;;;;5.75;3.00;;;;;;;28.85;41.99;100628.16;21150102;28;20073;-67
2022/05/19 11:13:36;;;;;;;8.00;3.42;;;;;;;29.31;41.24;100609.69;21148425;28;20650;-69
2022/05/19 11:23:43;;;;;;;4.72;2.83;;;;;;;29.90;40.99;100606.91;21149669;28;20096;-70
2022/05/19 11:33:50;;;;;;;7.90;4.10;;;;;;;30.06;38.55;100605.47;21147246;28;20404;-70
2022/05/19 11:44:00;;;;;;;6.15;3.03;;;;;;;29.89;37.57;100599.78;21147568;28;20514;-69
2022/05/19 12:05:10;;;;;;;8.27;3.50;;;;;;;30.19;39.55;100589.84;21146518;28;20044;-69
2022/05/19 12:15:21;;;;;;;5.47;3.08;;;;;;;30.14;37.87;100587.59;21142579;28;20079;-69
2022/05/19 12:25:31;;;;;;;5.50;3.10;;;;;;;30.03;37.89;100576.03;21144216;28;20485;-69
2022/05/19 12:35:32;;;;;;;7.47;4.00;;;;;;;30.50;36.73;100571.53;21144067;28;20104;-69
2022/05/19 12:45:43;;;;;;;7.57;3.72;;;;;;;30.76;36.53;100560.94;21142812;28;20047;-70
2022/05/19 12:55:47;;;;;;;7.18;3.33;;;;;;;31.00;36.18;100546.84;21142896;28;20138;-69
2022/05/19 13:05:55;;;;;;;9.05;3.42;;;;;;;31.19;35.67;100548.56;21142156;28;20406;-70
2022/05/19 13:15:59;;;;;;;5.65;3.20;;;;;;;31.40;35.08;100549.09;21089898;28;20112;-70
2022/05/19 13:26:06;;;;;;;10.98;3.55;;;;;;;31.53;34.26;100542.47;21057700;28;20508;-70
2022/05/19 13:36:10;;;;;;;6.10;3.45;;;;;;;31.64;34.14;100528.69;21056544;28;20051;-70
2022/05/19 13:46:17;;;;;;;7.45;3.90;;;;;;;31.35;34.02;100529.78;21056801;28;20048;-69
2022/05/19 13:56:23;;;;;;;6.97;3.25;;;;;;;31.42;34.36;100503.78;21064537;28;20052;-68
2022/05/19 14:06:29;;;;;;;7.97;4.38;;;;;;;31.67;34.52;100495.88;21072025;28;20106;-69
2022/05/19 14:16:31;;;;;;;7.78;3.70;;;;;;;31.26;34.28;100479.28;21127801;28;20048;-69
2022/05/19 14:26:50;;;;;;;8.90;3.50;;;;;;;31.64;34.16;100461.84;21155048;28;20043;-68
2022/05/19 14:36:59;;;;;;;7.80;3.67;;;;;;;31.69;33.25;100450.53;21152374;28;20051;-68
2022/05/19 14:47:03;;;;;;;5.75;3.53;;;;;;;30.98;34.54;100450.63;21152656;28;20128;-68
2022/05/19 14:57:18;;;;;;;10.85;4.15;;;;;;;30.82;34.88;100440.50;21151995;28;20052;-68
2022/05/19 15:07:36;;;;;;;6.20;3.65;;;;;;;30.66;37.51;100455.53;21149623;28;20478;-68
2022/05/19 15:17:39;;;;;;;10.75;3.80;;;;;;;30.76;37.08;100451.91;21142539;28;20093;-68
2022/05/19 15:27:41;;;;;;;7.38;3.20;;;;;;;30.82;36.68;100470.25;21149283;28;20051;-68
2022/05/19 15:37:43;;;;;;;4.57;2.63;;;;;;;30.55;34.66;100477.34;21147711;28;20101;-68
2022/05/19 15:47:48;;;;;;;7.43;3.33;;;;;;;30.76;34.80;100490.63;21147918;28;20048;-67
2022/05/19 15:57:49;;;;;;;9.00;3.00;;;;;;;30.47;36.04;100506.13;21147408;28;20047;-67
2022/05/19 16:07:52;;;;;;;6.60;2.97;;;;;;;30.12;38.09;100505.81;21145911;28;20389;-67
2022/05/19 16:18:01;;;;;;;7.47;3.65;;;;;;;29.99;39.42;100528.72;21145190;28;20073;-67
2022/05/19 16:28:03;;;;;;;7.50;3.55;;;;;;;29.91;40.11;100540.28;21145007;28;20047;-67
2022/05/19 16:38:10;;;;;;;10.43;3.88;;;;;;;29.88;41.14;100538.69;21142970;28;20047;-67
2022/05/19 16:48:12;;;;;;;8.00;3.95;;;;;;;30.04;41.82;100532.72;21143716;28;20051;-67
2022/05/19 16:58:15;;;;;;;10.60;4.23;;;;;;;29.87;44.36;100549.66;21143749;28;20047;-67
2022/05/19 17:08:17;;;;;;;9.75;3.88;;;;;;;30.07;43.53;100553.16;21142631;28;20051;-67
2022/05/19 17:18:19;;;;;;;11.20;4.03;;;;;;;29.47;45.72;100566.00;21134937;28;20139;-67
2022/05/19 17:28:21;;;;;;;10.23;3.97;;;;;;;28.93;47.90;100557.38;21144881;28;20051;-67
2022/05/19 17:38:26;;;;;;;10.25;4.05;;;;;;;28.67;49.31;100546.25;21158412;28;20601;-67
2022/05/19 17:48:27;;;;;;;8.57;4.05;;;;;;;28.29;55.82;100542.38;21075150;28;20423;-67
2022/05/19 17:58:33;;;;;;;10.68;3.92;;;;;;;27.85;56.49;100547.09;21072338;28;20093;-67
2022/05/19 18:08:35;;;;;;;10.88;5.72;;;;;;;27.35;60.82;100568.34;21068684;28;20047;-66
2022/05/19 18:18:37;;;;;;;7.95;3.97;;;;;;;27.22;58.75;100573.03;21137379;28;20058;-66
2022/05/19 18:28:40;;;;;;;12.55;4.30;;;;;;;27.05;57.41;100593.19;21153138;28;20048;-67
2022/05/19 18:38:44;;;;;;;9.13;4.55;;;;;;;26.96;59.43;100611.91;21151444;28;20063;-66
2022/05/19 18:48:46;;;;;;;7.82;4.47;;;;;;;26.82;60.40;100624.63;21152663;28;20055;-67
2022/05/19 18:58:50;;;;;;;10.60;4.55;;;;;;;26.48;66.65;100658.66;21149972;28;20043;-66
2022/05/19 19:08:51;;;;;;;11.65;5.18;;;;;;;26.09;62.77;100689.41;21146072;28;20054;-66
2022/05/19 19:18:54;;;;;;;10.98;4.20;;;;;;;25.59;61.36;100718.19;21135088;28;20638;-66
2022/05/19 19:28:55;;;;;;;6.70;3.20;;;;;;;25.04;60.00;100730.16;21149218;28;20051;-66
2022/05/19 19:38:57;;;;;;;7.15;2.83;;;;;;;24.79;60.33;100731.03;21136874;28;20481;-66
2022/05/19 19:48:59;;;;;;;6.07;2.95;;;;;;;24.66;60.72;100720.31;21145180;28;20492;-66
2022/05/19 19:59:01;;;;;;;21.17;5.78;;;;;;;24.27;79.36;100826.41;21146299;28;20116;-70
2022/05/19 20:09:04;;;;;;;12.68;4.40;;;;;;;20.14;100.00;100926.16;21149165;28;20058;-68
2022/05/19 20:19:07;;;;;;;8.50;4.70;;;;;;;17.94;100.00;100870.91;21154557;28;20131;-71
2022/05/19 20:29:09;;;;;;;7.13;2.97;;;;;;;18.33;100.00;100858.81;21151564;28;20406;-72
2022/05/19 20:39:11;;;;;;;9.27;3.40;;;;;;;18.40;100.00;100828.47;21146316;28;20051;-71
2022/05/19 20:49:12;;;;;;;8.57;4.25;;;;;;;18.82;100.00;100822.31;21146363;28;20496;-70
2022/05/19 20:59:14;;;;;;;8.30;3.83;;;;;;;18.88;100.00;100830.88;21145886;28;20047;-70
2022/05/19 21:09:16;;;;;;;8.13;3.78;;;;;;;18.97;100.00;100903.91;21143521;28;20498;-70
2022/05/19 21:19:17;;;;;;;9.38;3.90;;;;;;;18.88;100.00;100926.41;21142895;28;20097;-70
2022/05/19 21:29:19;;;;;;;6.93;3.42;;;;;;;18.98;100.00;100891.53;21140021;28;20055;-70
2022/05/19 21:39:22;;;;;;;7.05;3.88;;;;;;;18.89;100.00;100888.31;21140092;28;20496;-71
2022/05/19 21:49:23;;;;;;;10.90;4.22;;;;;;;18.84;100.00;100884.16;21140881;28;20640;-71
2022/05/19 21:59:26;;;;;;;6.95;4.00;;;;;;;18.55;100.00;100880.88;21141097;28;20044;-71
2022/05/19 22:09:27;;;;;;;9.23;4.18;;;;;;;18.67;100.00;100904.22;21146344;28;20081;-68
2022/05/19 22:19:29;;;;;;;7.70;3.92;;;;;;;18.48;100.00;100890.00;21158279;28;20442;-68
2022/05/19 22:29:35;;;;;;;9.15;5.18;;;;;;;18.30;100.00;100911.94;21162517;28;20055;-68
2022/05/19 22:39:38;;;;;;;11.25;4.97;;;;;;;18.23;100.00;100907.81;21161240;28;20044;-68
2022/05/19 22:49:39;;;;;;;10.13;5.57;;;;;;;18.07;100.00;100900.47;21160346;28;20055;-67
2022/05/19 22:59:42;;;;;;;11.48;5.20;;;;;;;18.02;100.00;100905.09;21159370;28;20048;-69
2022/05/19 23:09:43;;;;;;;8.88;5.28;;;;;;;17.96;100.00;100907.94;21158694;28;20055;-69
2022/05/19 23:19:45;;;;;;;11.93;6.32;;;;;;;17.95;100.00;100898.28;21158744;28;20051;-69
2022/05/19 23:29:46;;;;;;;11.52;6.15;;;;;;;17.75;100.00;100884.94;21156556;28;20104;-69
2022/05/19 23:39:49;;;;;;;12.60;6.38;;;;;;;17.75;100.00;100871.69;21156280;28;20046;-68
2022/05/19 23:49:50;;;;;;;10.25;6.18;;;;;;;17.86;100.00;100875.63;21156131;28;20055;-69
2022/05/19 23:59:52;;;;;;;12.90;6.38;;;;;;;17.79;100.00;100870.66;21155811;28;20557;-70
